createdAt,value
2022-08-26T00:00:56.629Z,8.23
2022-08-26T00:03:26.478Z,11.52
2022-08-26T00:05:56.276Z,10.23
2022-08-26T00:08:25.518Z,8.93
2022-08-26T00:10:54.100Z,8.05
2022-08-26T00:13:22.569Z,7.35
2022-08-26T00:15:51.325Z,11.02
2022-08-26T00:18:22.711Z,10.95
2022-08-26T00:20:52.303Z,7.68
2022-08-26T00:23:24.273Z,7.50
2022-08-26T00:25:53.454Z,7.80
2022-08-26T00:28:22.939Z,9.80
2022-08-26T00:30:52.403Z,6.65
2022-08-26T00:33:23.074Z,9.38
2022-08-26T00:35:51.804Z,8.63
2022-08-26T00:38:22.858Z,7.63
2022-08-26T00:40:56.218Z,6.32
2022-08-26T00:43:26.390Z,10.63
2022-08-26T00:46:00.543Z,10.63
2022-08-26T00:48:34.732Z,6.80
2022-08-26T00:51:16.803Z,6.53
2022-08-26T00:53:52.121Z,15.48
2022-08-26T00:56:24.432Z,10.15
2022-08-26T00:58:53.221Z,13.02
2022-08-26T01:01:23.139Z,10.25
2022-08-26T01:03:55.488Z,9.00
2022-08-26T01:06:25.964Z,12.63
2022-08-26T01:08:54.969Z,9.75
2022-08-26T01:11:24.003Z,11.60
2022-08-26T01:13:54.642Z,11.25
2022-08-26T01:16:24.742Z,11.85
2022-08-26T01:19:00.702Z,11.35
2022-08-26T01:21:40.499Z,14.55
2022-08-26T01:24:12.201Z,8.32
2022-08-26T01:26:44.698Z,9.70
2022-08-26T01:29:19.181Z,7.63
2022-08-26T01:31:55.349Z,12.98
2022-08-26T01:34:27.576Z,9.18
2022-08-26T01:37:04.695Z,11.70
2022-08-26T01:39:36.813Z,13.27
2022-08-26T01:42:10.396Z,7.57
2022-08-26T01:44:46.142Z,15.65
2022-08-26T01:47:18.299Z,11.75
2022-08-26T01:49:51.365Z,10.55
2022-08-26T01:52:27.577Z,7.30
2022-08-26T01:57:28.333Z,12.85
2022-08-26T02:00:00.204Z,9.00
2022-08-26T02:02:29.426Z,9.27
2022-08-26T02:05:02.872Z,11.00
2022-08-26T02:07:33.344Z,8.77
2022-08-26T02:10:03.297Z,7.70
2022-08-26T02:12:32.562Z,10.10
2022-08-26T02:15:06.435Z,10.68
2022-08-26T02:17:40.135Z,9.35
2022-08-26T02:20:13.430Z,8.67
2022-08-26T02:22:45.181Z,14.38
2022-08-26T02:25:22.977Z,10.52
2022-08-26T02:27:53.201Z,11.68
2022-08-26T02:30:26.043Z,10.52
2022-08-26T02:32:59.549Z,9.98
2022-08-26T02:35:28.343Z,14.13
2022-08-26T02:37:59.208Z,11.68
2022-08-26T02:40:33.604Z,15.98
2022-08-26T02:43:05.032Z,11.50
2022-08-26T02:45:37.531Z,11.35
2022-08-26T02:48:11.351Z,14.93
2022-08-26T02:50:40.608Z,15.40
2022-08-26T02:53:13.517Z,11.63
2022-08-26T02:55:43.949Z,12.35
2022-08-26T02:58:12.411Z,10.60
2022-08-26T03:00:52.749Z,15.13
2022-08-26T03:03:23.709Z,11.30
2022-08-26T03:05:52.762Z,11.70
2022-08-26T03:08:23.090Z,8.32
2022-08-26T03:10:52.993Z,8.85
2022-08-26T03:13:21.500Z,10.50
2022-08-26T03:15:50.127Z,15.55
2022-08-26T03:18:18.548Z,8.88
2022-08-26T03:20:49.055Z,11.88
2022-08-26T03:23:17.510Z,11.38
2022-08-26T03:25:52.488Z,12.65
2022-08-26T03:28:21.588Z,8.25
2022-08-26T03:30:49.254Z,13.90
2022-08-26T03:33:19.053Z,12.68
2022-08-26T03:35:50.692Z,10.88
2022-08-26T03:38:25.111Z,19.45
2022-08-26T03:40:55.593Z,10.98
2022-08-26T03:43:26.767Z,12.82
2022-08-26T03:45:55.253Z,10.73
2022-08-26T03:48:23.659Z,12.95
2022-08-26T03:50:52.304Z,10.27
2022-08-26T03:53:21.870Z,8.32
2022-08-26T03:55:52.010Z,9.73
2022-08-26T03:58:24.121Z,9.70
2022-08-26T04:00:55.374Z,13.43
2022-08-26T04:03:38.597Z,11.93
2022-08-26T04:06:08.091Z,9.80
2022-08-26T04:08:38.121Z,9.45
2022-08-26T04:11:07.771Z,10.73
2022-08-26T04:13:37.642Z,10.55
2022-08-26T04:16:07.481Z,9.27
2022-08-26T04:18:44.473Z,9.00
2022-08-26T04:21:15.619Z,11.77
2022-08-26T04:23:47.694Z,11.57
2022-08-26T04:26:17.393Z,11.82
2022-08-26T04:28:47.472Z,10.30
2022-08-26T04:31:17.818Z,15.00
2022-08-26T04:33:51.088Z,11.20
2022-08-26T04:36:20.324Z,18.02
2022-08-26T04:38:50.635Z,12.57
2022-08-26T04:41:20.763Z,10.93
2022-08-26T04:43:50.839Z,12.13
2022-08-26T04:46:24.361Z,15.75
2022-08-26T04:48:54.488Z,13.82
2022-08-26T04:51:28.039Z,12.43
2022-08-26T04:53:57.502Z,20.35
2022-08-26T04:56:27.626Z,11.23
2022-08-26T04:58:58.276Z,12.07
2022-08-26T05:01:28.411Z,12.00
2022-08-26T05:03:57.915Z,9.35
2022-08-26T05:06:26.481Z,10.80
2022-08-26T05:08:55.691Z,8.20
2022-08-26T05:11:24.829Z,8.63
2022-08-26T05:13:53.348Z,16.27
2022-08-26T05:16:23.346Z,11.43
2022-08-26T05:18:52.900Z,14.68
2022-08-26T05:21:23.942Z,11.55
2022-08-26T05:23:54.824Z,11.35
2022-08-26T05:26:24.651Z,9.32
2022-08-26T05:28:55.304Z,9.48
2022-08-26T05:31:29.729Z,10.73
2022-08-26T05:33:59.580Z,14.25
2022-08-26T05:36:35.358Z,11.30
2022-08-26T05:39:06.411Z,11.73
2022-08-26T05:41:38.297Z,12.75
2022-08-26T05:44:10.342Z,11.95
2022-08-26T05:46:41.773Z,11.45
2022-08-26T05:49:12.294Z,9.52
2022-08-26T05:51:41.793Z,12.65
2022-08-26T05:54:10.765Z,8.18
2022-08-26T05:56:39.815Z,11.95
2022-08-26T05:59:16.613Z,9.52
2022-08-26T06:01:51.209Z,10.07
2022-08-26T06:04:20.039Z,9.68
2022-08-26T06:06:48.761Z,8.82
2022-08-26T06:09:18.311Z,17.75
2022-08-26T06:11:46.953Z,8.20
2022-08-26T06:14:17.811Z,9.52
2022-08-26T06:16:47.111Z,10.65
2022-08-26T06:19:17.461Z,10.48
2022-08-26T06:21:51.361Z,6.97
2022-08-26T06:24:41.125Z,7.38
2022-08-26T06:27:13.632Z,8.02
2022-08-26T06:29:42.902Z,8.23
2022-08-26T06:32:11.828Z,6.88
2022-08-26T06:34:41.729Z,7.20
2022-08-26T06:37:10.149Z,9.50
2022-08-26T06:39:41.158Z,8.60
2022-08-26T06:42:10.994Z,10.85
2022-08-26T06:44:41.644Z,7.22
2022-08-26T06:47:13.226Z,16.52
2022-08-26T06:49:44.345Z,7.43
2022-08-26T06:52:12.793Z,15.10
2022-08-26T06:54:43.199Z,13.10
2022-08-26T06:57:14.364Z,11.20
2022-08-26T06:59:45.330Z,17.35
2022-08-26T07:02:14.669Z,12.20
2022-08-26T07:04:44.864Z,11.60
2022-08-26T07:07:17.011Z,8.82
2022-08-26T07:09:46.904Z,7.32
2022-08-26T07:12:18.276Z,11.48
2022-08-26T07:14:47.557Z,11.75
2022-08-26T07:17:17.050Z,6.90
2022-08-26T07:19:49.815Z,11.75
2022-08-26T07:22:18.772Z,9.30
2022-08-26T07:24:47.247Z,6.72
2022-08-26T07:27:17.716Z,10.48
2022-08-26T07:29:46.611Z,11.63
2022-08-26T07:32:17.519Z,12.07
2022-08-26T07:34:48.082Z,7.95
2022-08-26T07:37:16.801Z,12.80
2022-08-26T07:39:46.344Z,10.52
2022-08-26T07:42:18.501Z,13.07
2022-08-26T07:44:47.281Z,11.27
2022-08-26T07:47:24.760Z,9.05
2022-08-26T07:49:57.746Z,12.75
2022-08-26T07:52:30.034Z,8.32
2022-08-26T07:55:01.646Z,10.18
2022-08-26T07:57:31.030Z,19.35
2022-08-26T08:00:00.239Z,8.05
2022-08-26T08:02:30.897Z,12.25
2022-08-26T08:05:00.960Z,8.25
2022-08-26T08:07:44.256Z,9.63
2022-08-26T08:10:19.000Z,15.40
2022-08-26T08:12:50.752Z,19.65
2022-08-26T08:15:24.949Z,17.52
2022-08-26T08:17:55.576Z,10.55
2022-08-26T08:20:29.874Z,9.75
2022-08-26T08:22:58.515Z,11.05
2022-08-26T08:25:27.007Z,12.15
2022-08-26T08:27:55.468Z,15.35
2022-08-26T08:30:25.616Z,11.68
2022-08-26T08:32:54.877Z,16.90
2022-08-26T08:35:26.324Z,8.32
2022-08-26T08:37:56.590Z,14.65
2022-08-26T08:40:27.887Z,9.63
2022-08-26T08:43:03.748Z,13.60
2022-08-26T08:45:37.867Z,12.80
2022-08-26T08:48:16.908Z,24.15
2022-08-26T08:50:48.812Z,13.93
2022-08-26T08:53:25.090Z,14.77
2022-08-26T08:56:07.676Z,11.77
2022-08-26T08:58:53.555Z,12.48
2022-08-26T09:01:46.780Z,10.88
2022-08-26T09:05:08.224Z,11.63
2022-08-26T09:07:40.530Z,14.98
2022-08-26T09:10:30.657Z,12.63
2022-08-26T09:13:00.444Z,10.00
2022-08-26T09:15:41.225Z,13.90
2022-08-26T09:18:22.068Z,12.60
2022-08-26T09:20:57.650Z,20.23
2022-08-26T09:23:27.145Z,9.18
2022-08-26T09:26:02.579Z,17.65
2022-08-26T09:28:32.449Z,12.63
2022-08-26T09:31:14.073Z,10.73
2022-08-26T09:33:43.529Z,13.38
2022-08-26T09:36:22.825Z,16.75
2022-08-26T09:38:55.072Z,16.42
2022-08-26T09:41:32.122Z,9.20
2022-08-26T09:44:17.814Z,17.67
2022-08-26T09:46:55.808Z,11.57
2022-08-26T09:49:36.010Z,11.27
2022-08-26T09:52:21.337Z,11.85
2022-08-26T09:55:04.916Z,8.23
2022-08-26T09:57:37.814Z,11.27
2022-08-26T10:00:31.200Z,10.30
2022-08-26T10:03:02.620Z,7.55
2022-08-26T10:05:40.266Z,8.77
2022-08-26T10:08:29.964Z,7.05
2022-08-26T10:11:01.786Z,9.88
2022-08-26T10:13:37.079Z,8.30
2022-08-26T10:16:17.784Z,10.75
2022-08-26T10:18:59.446Z,13.98
2022-08-26T10:21:35.034Z,14.75
2022-08-26T10:24:06.029Z,16.02
2022-08-26T10:26:43.473Z,17.08
2022-08-26T10:29:19.897Z,17.17
2022-08-26T10:31:53.414Z,13.65
2022-08-26T10:34:27.393Z,15.23
2022-08-26T10:37:14.525Z,14.80
2022-08-26T10:39:57.008Z,10.70
2022-08-26T10:42:35.113Z,14.90
2022-08-26T10:45:11.786Z,16.23
2022-08-26T10:47:51.441Z,13.10
2022-08-26T10:50:21.189Z,17.73
2022-08-26T10:53:01.309Z,24.40
2022-08-26T10:55:38.254Z,14.98
2022-08-26T10:58:26.141Z,16.77
2022-08-26T11:01:24.268Z,12.60
2022-08-26T11:04:04.296Z,16.75
2022-08-26T11:06:33.072Z,16.77
2022-08-26T11:09:08.607Z,17.40
2022-08-26T11:11:50.059Z,15.82
2022-08-26T11:14:42.021Z,22.05
2022-08-26T11:18:00.037Z,12.75
2022-08-26T11:20:39.288Z,17.55
2022-08-26T11:23:50.393Z,18.08
2022-08-26T11:26:35.915Z,15.82
2022-08-26T11:29:13.663Z,13.40
2022-08-26T11:31:57.653Z,18.60
2022-08-26T11:34:57.925Z,10.90
2022-08-26T11:37:36.101Z,13.68
2022-08-26T11:40:12.955Z,15.40
2022-08-26T11:42:44.895Z,13.57
2022-08-26T11:45:22.403Z,11.48
2022-08-26T11:47:52.346Z,11.85
2022-08-26T11:50:26.104Z,13.02
2022-08-26T11:53:01.708Z,16.15
2022-08-26T11:55:33.481Z,22.35
2022-08-26T11:58:04.832Z,16.65
2022-08-26T12:00:38.482Z,14.63
2022-08-26T12:03:20.019Z,17.55
2022-08-26T12:05:55.037Z,14.65
2022-08-26T12:08:31.099Z,16.52
2022-08-26T12:11:08.564Z,18.13
2022-08-26T12:13:39.297Z,18.90
2022-08-26T12:16:08.528Z,18.27
2022-08-26T12:18:39.400Z,13.18
2022-08-26T12:21:22.342Z,14.52
2022-08-26T12:23:55.632Z,18.83
2022-08-26T12:26:28.257Z,13.77
2022-08-26T12:29:00.025Z,14.73
2022-08-26T12:31:32.640Z,22.00
2022-08-26T12:34:04.515Z,12.95
2022-08-26T12:36:42.329Z,19.67
2022-08-26T12:39:15.854Z,18.50
2022-08-26T12:41:53.903Z,19.85
2022-08-26T12:44:53.263Z,19.50
2022-08-26T12:47:42.052Z,18.65
2022-08-26T12:50:19.577Z,10.48
2022-08-26T12:53:00.548Z,16.17
2022-08-26T12:55:40.118Z,20.55
2022-08-26T12:58:27.705Z,27.05
2022-08-26T13:00:58.443Z,18.73
2022-08-26T13:03:38.306Z,17.02
2022-08-26T13:06:16.146Z,15.63
2022-08-26T13:08:47.754Z,13.13
2022-08-26T13:11:20.406Z,23.33
2022-08-26T13:13:51.712Z,11.60
2022-08-26T13:16:21.366Z,13.55
2022-08-26T13:18:51.623Z,21.23
2022-08-26T13:21:22.710Z,18.33
2022-08-26T13:23:52.993Z,15.57
2022-08-26T13:26:21.773Z,16.83
2022-08-26T13:29:01.703Z,13.05
2022-08-26T13:31:32.424Z,15.13
2022-08-26T13:34:02.345Z,15.65
2022-08-26T13:36:30.914Z,13.48
2022-08-26T13:39:00.625Z,14.77
2022-08-26T13:41:29.822Z,13.70
2022-08-26T13:43:59.605Z,17.45
2022-08-26T13:46:28.763Z,11.95
2022-08-26T13:48:58.199Z,12.98
2022-08-26T13:51:28.320Z,16.45
2022-08-26T13:53:57.322Z,21.15
2022-08-26T13:56:29.795Z,13.77
2022-08-26T13:58:59.536Z,16.50
2022-08-26T14:01:29.383Z,12.05
2022-08-26T14:03:57.908Z,13.25
2022-08-26T14:06:26.523Z,15.13
2022-08-26T14:08:54.922Z,13.15
2022-08-26T14:11:24.864Z,14.52
2022-08-26T14:13:54.785Z,19.23
2022-08-26T14:16:27.503Z,21.75
2022-08-26T14:18:56.184Z,15.35
2022-08-26T14:21:25.956Z,18.13
2022-08-26T14:23:59.003Z,14.90
2022-08-26T14:26:30.091Z,12.93
2022-08-26T14:29:00.867Z,14.95
2022-08-26T14:31:31.784Z,20.05
2022-08-26T14:34:05.284Z,18.10
2022-08-26T14:36:35.230Z,16.23
2022-08-26T14:39:06.591Z,19.10
2022-08-26T14:41:37.730Z,18.10
2022-08-26T14:44:12.728Z,16.52
2022-08-26T14:46:46.435Z,20.05
2022-08-26T14:49:15.458Z,15.75
2022-08-26T14:51:44.035Z,20.73
2022-08-26T14:54:13.109Z,17.63
2022-08-26T14:56:47.603Z,16.83
2022-08-26T14:59:20.666Z,17.23
2022-08-26T15:01:49.808Z,18.95
2022-08-26T15:04:18.594Z,12.73
2022-08-26T15:06:47.207Z,20.17
2022-08-26T15:09:16.298Z,10.07
2022-08-26T15:11:44.799Z,17.48
2022-08-26T15:14:19.176Z,19.75
2022-08-26T15:16:48.822Z,15.75
2022-08-26T15:19:18.020Z,19.13
2022-08-26T15:21:47.353Z,18.10
2022-08-26T15:24:18.601Z,16.02
2022-08-26T15:26:49.714Z,15.52
2022-08-26T15:29:20.092Z,21.25
2022-08-26T15:31:49.201Z,33.35
2022-08-26T15:34:18.155Z,21.67
2022-08-26T15:36:48.877Z,19.58
2022-08-26T15:39:18.576Z,15.27
2022-08-26T15:41:48.140Z,14.98
2022-08-26T15:44:19.239Z,15.57
2022-08-26T15:46:51.225Z,22.30
2022-08-26T15:49:22.286Z,23.05
2022-08-26T15:51:51.411Z,13.07
2022-08-26T15:54:23.108Z,15.80
2022-08-26T15:56:52.214Z,24.85
2022-08-26T15:59:23.223Z,10.82
2022-08-26T16:01:52.640Z,18.65
2022-08-26T16:04:21.506Z,15.07
2022-08-26T16:06:52.178Z,7.43
2022-08-26T16:09:24.306Z,11.85
2022-08-26T16:11:53.162Z,13.10
2022-08-26T16:14:24.038Z,15.57
2022-08-26T16:16:53.348Z,5.57
2022-08-26T16:19:22.186Z,8.85
2022-08-26T16:21:51.500Z,7.68
2022-08-26T16:24:24.820Z,5.88
2022-08-26T16:26:55.856Z,4.90
2022-08-26T16:29:25.740Z,7.72
2022-08-26T16:31:54.794Z,7.60
2022-08-26T16:34:23.962Z,11.73
2022-08-26T16:36:53.012Z,11.85
2022-08-26T16:39:21.326Z,7.90
2022-08-26T16:41:49.646Z,9.38
2022-08-26T16:44:18.158Z,5.55
2022-08-26T16:46:48.047Z,9.85
2022-08-26T16:49:16.436Z,11.55
2022-08-26T16:51:45.156Z,9.18
2022-08-26T16:54:13.796Z,7.18
2022-08-26T16:56:42.325Z,8.15
2022-08-26T16:59:12.174Z,7.25
2022-08-26T17:01:40.704Z,8.27
2022-08-26T17:04:10.473Z,9.18
2022-08-26T17:06:39.167Z,8.95
2022-08-26T17:09:07.700Z,7.60
2022-08-26T17:11:36.563Z,6.00
2022-08-26T17:14:05.330Z,7.00
2022-08-26T17:16:34.294Z,4.43
2022-08-26T17:19:04.469Z,4.68
2022-08-26T17:21:36.625Z,6.60
2022-08-26T17:24:06.591Z,4.35
2022-08-26T17:26:35.820Z,9.13
2022-08-26T17:29:04.801Z,2.97
2022-08-26T17:31:33.300Z,2.83
2022-08-26T17:34:01.883Z,1.83
2022-08-26T17:36:30.328Z,3.75
2022-08-26T17:39:00.255Z,2.92
2022-08-26T17:41:28.856Z,4.32
2022-08-26T17:43:57.671Z,5.13
2022-08-26T17:46:26.666Z,3.03
2022-08-26T17:48:55.471Z,4.43
2022-08-26T17:51:23.890Z,4.93
2022-08-26T17:53:53.320Z,4.60
2022-08-26T17:56:26.057Z,4.38
2022-08-26T17:58:56.914Z,5.85
2022-08-26T18:01:27.952Z,3.65
2022-08-26T18:04:00.371Z,5.40
2022-08-26T18:06:30.876Z,4.72
2022-08-26T18:08:59.919Z,6.88
2022-08-26T18:11:31.221Z,5.78
2022-08-26T18:14:00.462Z,5.60
2022-08-26T18:16:31.827Z,4.68
2022-08-26T18:19:02.156Z,6.28
2022-08-26T18:21:30.802Z,5.10
2022-08-26T18:23:59.281Z,7.07
2022-08-26T18:26:32.593Z,8.02
2022-08-26T18:29:01.782Z,10.73
2022-08-26T18:31:31.610Z,6.57
2022-08-26T18:34:00.801Z,11.68
2022-08-26T18:36:32.753Z,9.30
2022-08-26T18:39:02.262Z,9.00
2022-08-26T18:41:35.809Z,9.48
2022-08-26T18:44:04.961Z,6.93
2022-08-26T18:46:33.489Z,8.77
2022-08-26T18:49:02.018Z,6.47
2022-08-26T18:51:34.057Z,10.50
2022-08-26T18:54:05.538Z,11.55
2022-08-26T18:56:37.387Z,7.75
2022-08-26T18:59:07.879Z,7.80
2022-08-26T19:01:39.020Z,9.35
2022-08-26T19:04:09.310Z,8.80
2022-08-26T19:06:48.377Z,8.43
2022-08-26T19:09:17.965Z,6.03
2022-08-26T19:11:49.618Z,11.48
2022-08-26T19:14:19.281Z,8.65
2022-08-26T19:16:52.352Z,7.50
2022-08-26T19:19:23.850Z,8.55
2022-08-26T19:21:54.421Z,6.60
2022-08-26T19:24:27.396Z,6.43
2022-08-26T19:27:01.160Z,9.57
2022-08-26T19:29:32.188Z,13.68
2022-08-26T19:32:01.905Z,10.60
2022-08-26T19:34:30.532Z,7.47
2022-08-26T19:36:59.320Z,12.98
2022-08-26T19:39:28.165Z,10.38
2022-08-26T19:41:59.013Z,9.25
2022-08-26T19:44:44.914Z,8.90
2022-08-26T19:47:14.018Z,9.88
2022-08-26T19:49:42.490Z,6.72
2022-08-26T19:52:12.168Z,9.93
2022-08-26T19:54:41.420Z,10.88
2022-08-26T19:57:11.272Z,7.60
2022-08-26T19:59:40.184Z,10.75
2022-08-26T20:02:11.001Z,12.80
2022-08-26T20:04:41.649Z,19.80
2022-08-26T20:07:14.221Z,7.97
2022-08-26T20:09:48.038Z,8.52
2022-08-26T20:12:18.650Z,6.65
2022-08-26T20:14:47.101Z,11.70
2022-08-26T20:17:16.970Z,14.85
2022-08-26T20:20:02.863Z,9.52
2022-08-26T20:22:31.586Z,10.48
2022-08-26T20:25:00.536Z,6.63
2022-08-26T20:27:35.561Z,7.50
2022-08-26T20:30:10.138Z,12.77
2022-08-26T20:32:39.398Z,7.72
2022-08-26T20:35:10.817Z,6.82
2022-08-26T20:37:40.159Z,7.82
2022-08-26T20:40:11.255Z,8.27
2022-08-26T20:42:41.032Z,11.88
2022-08-26T20:45:10.678Z,12.13
2022-08-26T20:47:39.105Z,8.35
2022-08-26T20:50:09.133Z,11.50
2022-08-26T20:52:37.669Z,9.88
2022-08-26T20:55:07.362Z,8.70
2022-08-26T20:57:35.797Z,8.43
2022-08-26T21:00:07.455Z,14.82
2022-08-26T21:02:36.889Z,7.88
2022-08-26T21:05:06.714Z,7.95
2022-08-26T21:07:35.942Z,10.35
2022-08-26T21:10:04.973Z,12.38
2022-08-26T21:12:33.564Z,8.45
2022-08-26T21:15:02.042Z,11.85
2022-08-26T21:17:32.289Z,10.63
2022-08-26T21:20:00.929Z,10.68
2022-08-26T21:22:30.648Z,8.95
2022-08-26T21:24:59.092Z,11.18
2022-08-26T21:27:27.427Z,9.20
2022-08-26T21:29:56.964Z,13.60
2022-08-26T21:32:25.317Z,8.68
2022-08-26T21:34:57.538Z,9.75
2022-08-26T21:37:27.868Z,12.38
2022-08-26T21:39:57.883Z,12.63
2022-08-26T21:42:27.415Z,11.05
2022-08-26T21:44:55.883Z,9.63
2022-08-26T21:47:24.432Z,13.50
2022-08-26T21:49:53.207Z,11.55
2022-08-26T21:52:23.067Z,13.65
2022-08-26T21:54:51.646Z,11.60
2022-08-26T21:57:20.963Z,8.57
2022-08-26T21:59:49.275Z,9.93
2022-08-26T22:02:17.796Z,9.32
2022-08-26T22:04:48.870Z,11.27
2022-08-26T22:07:19.158Z,10.55
2022-08-26T22:09:49.632Z,11.05
2022-08-26T22:12:19.154Z,9.15
2022-08-26T22:14:48.060Z,8.73
2022-08-26T22:17:16.894Z,11.27
2022-08-26T22:19:46.473Z,10.40
2022-08-26T22:22:15.422Z,9.63
2022-08-26T22:24:44.262Z,7.88
2022-08-26T22:27:15.182Z,8.77
2022-08-26T22:29:43.685Z,13.30
2022-08-26T22:32:12.156Z,11.68
2022-08-26T22:34:41.811Z,10.45
2022-08-26T22:37:10.207Z,13.10
2022-08-26T22:39:39.179Z,8.65
2022-08-26T22:42:07.761Z,10.90
2022-08-26T22:44:37.547Z,10.15
2022-08-26T22:47:06.509Z,9.27
2022-08-26T22:49:34.921Z,9.95
2022-08-26T22:52:03.853Z,10.43
2022-08-26T22:54:32.955Z,13.65
2022-08-26T22:57:01.691Z,10.07
2022-08-26T22:59:30.042Z,10.68
2022-08-26T23:01:59.786Z,9.82
2022-08-26T23:04:28.392Z,10.85
2022-08-26T23:06:56.879Z,9.98
2022-08-26T23:09:25.273Z,11.65
2022-08-26T23:11:55.989Z,11.20
2022-08-26T23:14:25.776Z,10.32
2022-08-26T23:16:54.314Z,11.32
2022-08-26T23:19:24.659Z,11.15
2022-08-26T23:21:53.349Z,14.75
2022-08-26T23:24:22.480Z,16.17
2022-08-26T23:26:50.872Z,12.68
2022-08-26T23:29:19.588Z,12.85
2022-08-26T23:31:47.971Z,12.25
2022-08-26T23:34:34.239Z,15.23
2022-08-26T23:37:06.202Z,15.07
2022-08-26T23:39:36.487Z,16.25
2022-08-26T23:42:06.562Z,17.88
2022-08-26T23:44:35.690Z,14.95
2022-08-26T23:47:05.135Z,22.52
2022-08-26T23:49:34.258Z,24.20
2022-08-26T23:52:23.826Z,22.63
2022-08-26T23:54:52.823Z,22.25
2022-08-26T23:57:24.131Z,21.90
2022-08-26T23:59:53.029Z,23.77
